createdAt,value
2022-11-15T00:01:45.431Z,10
2022-11-15T00:03:45.504Z,9
2022-11-15T00:05:45.591Z,9
2022-11-15T00:07:54.644Z,10
2022-11-15T00:09:46.185Z,10
2022-11-15T00:11:45.916Z,10
2022-11-15T00:13:45.999Z,10
2022-11-15T00:15:46.112Z,9
2022-11-15T00:17:46.220Z,9
2022-11-15T00:19:46.305Z,9
2022-11-15T00:21:46.478Z,9
2022-11-15T00:25:46.616Z,9
2022-11-15T00:27:46.709Z,9
2022-11-15T00:31:46.931Z,9
2022-11-15T00:33:47.279Z,10
2022-11-15T00:35:47.136Z,10
2022-11-15T00:37:47.244Z,10
2022-11-15T00:39:47.412Z,10
2022-11-15T00:41:47.594Z,10
2022-11-15T00:43:47.651Z,9
2022-11-15T00:45:47.754Z,10
2022-11-15T00:47:47.836Z,10
2022-11-15T00:51:48.058Z,10
2022-11-15T00:53:48.135Z,9
2022-11-15T00:55:48.262Z,10
2022-11-15T00:57:48.367Z,11
2022-11-15T00:59:48.456Z,10
2022-11-15T01:01:48.656Z,10
2022-11-15T01:03:48.631Z,11
2022-11-15T01:05:48.737Z,10
2022-11-15T01:07:48.816Z,10
2022-11-15T01:09:48.911Z,10
2022-11-15T01:11:49.034Z,11
2022-11-15T01:13:49.133Z,11
2022-11-15T01:15:49.242Z,10
2022-11-15T01:17:49.347Z,11
2022-11-15T01:19:49.422Z,11
2022-11-15T01:21:49.594Z,12
2022-11-15T01:23:49.653Z,11
2022-11-15T01:25:49.731Z,12
2022-11-15T01:27:49.842Z,13
2022-11-15T01:29:49.961Z,15
2022-11-15T01:31:50.037Z,14
2022-11-15T01:33:50.149Z,16
2022-11-15T01:35:50.254Z,18
2022-11-15T01:37:50.343Z,18
2022-11-15T01:39:50.440Z,18
2022-11-15T01:41:50.638Z,16
2022-11-15T01:43:50.629Z,18
2022-11-15T01:45:50.731Z,15
2022-11-15T01:47:50.836Z,14
2022-11-15T01:49:50.955Z,12
2022-11-15T01:53:51.144Z,13
2022-11-15T01:55:51.264Z,14
2022-11-15T01:57:51.344Z,13
2022-11-15T01:59:51.421Z,13
2022-11-15T02:01:51.633Z,14
2022-11-15T02:03:51.644Z,13
2022-11-15T02:05:51.748Z,12
2022-11-15T02:07:51.829Z,11
2022-11-15T02:09:51.928Z,12
2022-11-15T02:11:52.060Z,13
2022-11-15T02:13:52.160Z,12
2022-11-15T02:15:52.234Z,12
2022-11-15T02:17:52.326Z,12
2022-11-15T02:19:52.422Z,12
2022-11-15T02:21:52.511Z,12
2022-11-15T02:23:52.579Z,12
2022-11-15T02:27:52.761Z,12
2022-11-15T02:29:52.878Z,13
2022-11-15T02:31:53.008Z,12
2022-11-15T02:33:53.067Z,11
2022-11-15T02:35:53.143Z,11
2022-11-15T02:37:53.466Z,11
2022-11-15T02:39:53.375Z,10
2022-11-15T02:41:53.437Z,11
2022-11-15T02:43:53.512Z,10
2022-11-15T02:45:53.602Z,11
2022-11-15T02:49:53.801Z,11
2022-11-15T02:51:53.904Z,11
2022-11-15T02:53:53.992Z,11
2022-11-15T02:55:54.083Z,11
2022-11-15T02:57:54.204Z,11
2022-11-15T02:59:54.250Z,10
2022-11-15T03:01:54.366Z,11
2022-11-15T03:03:54.429Z,11
2022-11-15T03:05:54.542Z,10
2022-11-15T03:07:58.187Z,10
2022-11-15T03:09:54.682Z,10
2022-11-15T03:11:54.794Z,10
2022-11-15T03:13:54.921Z,10
2022-11-15T03:15:54.986Z,11
2022-11-15T03:17:55.055Z,11
2022-11-15T03:19:55.295Z,11
2022-11-15T03:21:55.265Z,11
2022-11-15T03:23:55.342Z,10
2022-11-15T03:27:55.556Z,10
2022-11-15T03:29:55.645Z,9
2022-11-15T03:33:55.831Z,9
2022-11-15T03:35:55.922Z,9
2022-11-15T03:37:56.071Z,10
2022-11-15T03:39:56.085Z,9
2022-11-15T03:41:56.188Z,10
2022-11-15T03:43:56.280Z,10
2022-11-15T03:45:56.368Z,10
2022-11-15T03:49:56.547Z,11
2022-11-15T03:51:56.639Z,10
2022-11-15T03:53:56.703Z,11
2022-11-15T03:57:56.867Z,10
2022-11-15T03:59:56.955Z,11
2022-11-15T04:01:57.050Z,10
2022-11-15T04:03:57.132Z,11
2022-11-15T04:05:57.194Z,11
2022-11-15T04:07:57.296Z,12
2022-11-15T04:09:57.462Z,11
2022-11-15T04:11:57.457Z,12
2022-11-15T04:13:57.577Z,11
2022-11-15T04:15:57.625Z,11
2022-11-15T04:17:57.728Z,11
2022-11-15T04:21:57.917Z,12
2022-11-15T04:23:57.981Z,12
2022-11-15T04:25:58.031Z,11
2022-11-15T04:27:58.118Z,12
2022-11-15T04:29:58.230Z,11
2022-11-15T04:31:58.454Z,11
2022-11-15T04:33:58.464Z,12
2022-11-15T04:35:58.487Z,13
2022-11-15T04:37:58.564Z,13
2022-11-15T04:39:58.650Z,11
2022-11-15T04:41:58.746Z,11
2022-11-15T04:43:58.806Z,11
2022-11-15T04:45:58.899Z,11
2022-11-15T04:48:29.147Z,11
2022-11-15T04:50:29.144Z,11
2022-11-15T04:52:29.277Z,11
2022-11-15T04:54:29.377Z,11
2022-11-15T04:56:29.515Z,12
2022-11-15T04:58:29.634Z,12
2022-11-15T05:00:29.738Z,12
2022-11-15T05:02:29.877Z,13
2022-11-15T05:04:29.995Z,13
2022-11-15T05:06:30.118Z,13
2022-11-15T05:08:30.225Z,15
2022-11-15T05:10:30.372Z,14
2022-11-15T05:12:30.511Z,14
2022-11-15T05:14:30.594Z,13
2022-11-15T05:16:30.693Z,13
2022-11-15T05:18:30.821Z,14
2022-11-15T05:20:30.940Z,13
2022-11-15T05:22:31.036Z,13
2022-11-15T05:24:31.178Z,14
2022-11-15T05:26:31.276Z,14
2022-11-15T05:28:31.396Z,16
2022-11-15T05:30:31.525Z,15
2022-11-15T05:32:31.635Z,16
2022-11-15T05:34:31.753Z,18
2022-11-15T05:36:31.850Z,25
2022-11-15T05:38:31.962Z,24
2022-11-15T05:40:32.087Z,31
2022-11-15T05:42:32.170Z,18
2022-11-15T05:44:32.299Z,51
2022-11-15T05:46:32.393Z,34
2022-11-15T05:48:32.491Z,139
2022-11-15T05:50:32.604Z,182
2022-11-15T05:52:32.702Z,96
2022-11-15T05:54:32.835Z,86
2022-11-15T05:56:32.946Z,83
2022-11-15T05:58:33.036Z,56
2022-11-15T06:00:33.161Z,52
2022-11-15T06:02:33.316Z,22
2022-11-15T06:04:33.386Z,21
2022-11-15T06:06:33.499Z,19
2022-11-15T06:08:33.604Z,20
2022-11-15T06:10:33.708Z,16
2022-11-15T06:12:33.799Z,17
2022-11-15T06:14:33.917Z,16
2022-11-15T06:16:34.033Z,16
2022-11-15T06:18:34.141Z,15
2022-11-15T06:20:34.271Z,15
2022-11-15T06:22:34.364Z,14
2022-11-15T06:24:34.501Z,17
2022-11-15T06:26:34.598Z,19
2022-11-15T06:28:34.716Z,18
2022-11-15T06:30:34.810Z,18
2022-11-15T06:32:34.919Z,18
2022-11-15T06:34:35.051Z,18
2022-11-15T06:36:35.157Z,17
2022-11-15T06:38:35.252Z,16
2022-11-15T06:40:35.366Z,15
2022-11-15T06:42:35.476Z,15
2022-11-15T06:44:35.570Z,15
2022-11-15T06:46:35.701Z,14
2022-11-15T06:48:35.794Z,14
2022-11-15T06:50:35.931Z,13
2022-11-15T06:52:36.023Z,14
2022-11-15T06:54:36.130Z,14
2022-11-15T06:56:36.245Z,14
2022-11-15T06:58:36.355Z,14
2022-11-15T07:00:36.529Z,14
2022-11-15T07:02:36.619Z,13
2022-11-15T07:06:36.768Z,14
2022-11-15T07:08:36.884Z,14
2022-11-15T07:10:36.964Z,15
2022-11-15T07:12:37.053Z,21
2022-11-15T07:14:37.165Z,27
2022-11-15T07:16:37.272Z,31
2022-11-15T07:18:37.367Z,36
2022-11-15T07:20:37.495Z,34
2022-11-15T07:22:37.630Z,33
2022-11-15T07:26:37.800Z,32
2022-11-15T07:28:37.914Z,31
2022-11-15T07:30:42.509Z,31
2022-11-15T07:32:38.157Z,30
2022-11-15T07:34:38.330Z,29
2022-11-15T07:36:38.339Z,30
2022-11-15T07:38:42.859Z,28
2022-11-15T07:40:38.573Z,29
2022-11-15T07:42:38.679Z,28
2022-11-15T07:44:38.820Z,27
2022-11-15T07:46:38.864Z,28
2022-11-15T07:48:43.870Z,36
2022-11-15T07:50:39.080Z,30
2022-11-15T07:52:39.290Z,31
2022-11-15T07:54:39.304Z,33
2022-11-15T07:56:39.387Z,36
2022-11-15T07:58:39.497Z,32
2022-11-15T08:00:39.609Z,33
2022-11-15T08:02:39.827Z,33
2022-11-15T08:04:39.835Z,34
2022-11-15T08:06:39.932Z,36
2022-11-15T08:08:40.055Z,35
2022-11-15T08:10:40.903Z,34
2022-11-15T08:12:40.284Z,38
2022-11-15T08:14:40.316Z,34
2022-11-15T08:16:40.424Z,34
2022-11-15T08:18:40.520Z,34
2022-11-15T08:20:40.612Z,35
2022-11-15T08:22:40.711Z,33
2022-11-15T08:24:40.790Z,33
2022-11-15T08:26:40.915Z,35
2022-11-15T08:28:41.004Z,35
2022-11-15T08:30:41.104Z,37
2022-11-15T08:32:41.187Z,34
2022-11-15T08:34:41.309Z,34
2022-11-15T08:36:45.959Z,40
2022-11-15T08:38:41.517Z,42
2022-11-15T08:40:41.617Z,40
2022-11-15T08:42:41.707Z,39
2022-11-15T08:44:41.811Z,42
2022-11-15T08:46:41.888Z,46
2022-11-15T08:48:41.989Z,45
2022-11-15T08:50:42.071Z,33
2022-11-15T08:52:42.171Z,32
2022-11-15T08:54:42.292Z,41
2022-11-15T08:56:42.366Z,46
2022-11-15T08:58:42.468Z,40
2022-11-15T09:00:42.570Z,38
2022-11-15T09:02:42.694Z,37
2022-11-15T09:04:42.795Z,40
2022-11-15T09:06:43.409Z,39
2022-11-15T09:08:47.913Z,42
2022-11-15T09:10:43.086Z,41
2022-11-15T09:12:43.157Z,36
2022-11-15T09:14:43.259Z,36
2022-11-15T09:16:43.378Z,37
2022-11-15T09:18:43.453Z,40
2022-11-15T09:20:43.560Z,40
2022-11-15T09:22:43.638Z,38
2022-11-15T09:24:43.815Z,37
2022-11-15T09:28:51.130Z,35
2022-11-15T09:30:44.120Z,31
2022-11-15T09:32:44.115Z,27
2022-11-15T09:34:44.206Z,25
2022-11-15T09:36:44.300Z,22
2022-11-15T09:38:44.400Z,21
2022-11-15T09:40:44.493Z,20
2022-11-15T09:42:44.600Z,20
2022-11-15T09:44:44.715Z,19
2022-11-15T09:46:44.753Z,20
2022-11-15T09:48:44.812Z,19
2022-11-15T09:50:44.975Z,20
2022-11-15T09:52:45.017Z,20
2022-11-15T09:54:54.379Z,18
2022-11-15T09:56:45.185Z,18
2022-11-15T09:58:45.257Z,17
2022-11-15T10:02:45.431Z,19
2022-11-15T10:04:45.515Z,18
2022-11-15T10:06:45.639Z,17
2022-11-15T10:08:45.697Z,18
2022-11-15T10:10:45.789Z,17
2022-11-15T10:12:45.846Z,17
2022-11-15T10:14:50.282Z,18
2022-11-15T10:16:46.033Z,18
2022-11-15T10:18:46.121Z,17
2022-11-15T10:20:46.179Z,18
2022-11-15T10:22:46.288Z,16
2022-11-15T10:25:16.435Z,17
2022-11-15T10:27:16.535Z,16
2022-11-15T10:29:16.667Z,19
2022-11-15T10:31:16.778Z,18
2022-11-15T10:33:16.884Z,17
2022-11-15T10:35:16.986Z,18
2022-11-15T10:37:17.128Z,18
2022-11-15T10:40:22.167Z,18
2022-11-15T10:41:17.320Z,19
2022-11-15T10:43:17.427Z,18
2022-11-15T10:45:17.556Z,18
2022-11-15T10:47:17.650Z,17
2022-11-15T10:49:17.766Z,19
2022-11-15T10:51:17.873Z,20
2022-11-15T10:53:17.972Z,21
2022-11-15T10:55:18.083Z,21
2022-11-15T10:57:18.219Z,21
2022-11-15T10:59:18.324Z,20
2022-11-15T11:01:18.470Z,21
2022-11-15T11:03:18.519Z,23
2022-11-15T11:05:18.611Z,22
2022-11-15T11:07:18.809Z,23
2022-11-15T11:09:18.849Z,24
2022-11-15T11:11:18.963Z,28
2022-11-15T11:13:19.057Z,33
2022-11-15T11:15:19.182Z,32
2022-11-15T11:17:19.256Z,27
2022-11-15T11:19:19.374Z,27
2022-11-15T11:21:19.461Z,27
2022-11-15T11:23:19.586Z,31
2022-11-15T11:25:19.734Z,30
2022-11-15T11:27:19.783Z,34
2022-11-15T11:29:19.898Z,33
2022-11-15T11:31:19.990Z,29
2022-11-15T11:33:20.149Z,28
2022-11-15T11:37:20.318Z,31
2022-11-15T11:39:20.425Z,28
2022-11-15T11:41:20.501Z,28
2022-11-15T11:43:20.677Z,26
2022-11-15T11:45:20.725Z,25
2022-11-15T11:47:20.802Z,24
2022-11-15T11:49:20.887Z,24
2022-11-15T11:51:20.984Z,27
2022-11-15T11:53:21.090Z,27
2022-11-15T11:55:21.172Z,23
2022-11-15T11:57:21.304Z,24
2022-11-15T11:59:21.402Z,22
2022-11-15T12:01:21.505Z,25
2022-11-15T12:03:21.678Z,23
2022-11-15T12:05:21.658Z,24
2022-11-15T12:07:21.828Z,27
2022-11-15T12:09:22.021Z,27
2022-11-15T12:11:22.020Z,25
2022-11-15T12:13:22.083Z,29
2022-11-15T12:15:22.175Z,28
2022-11-15T12:17:22.281Z,32
2022-11-15T12:19:22.408Z,31
2022-11-15T12:21:27.136Z,32
2022-11-15T12:23:22.626Z,35
2022-11-15T12:25:22.655Z,32
2022-11-15T12:27:26.595Z,31
2022-11-15T12:29:22.865Z,37
2022-11-15T12:31:22.953Z,34
2022-11-15T12:33:23.055Z,33
2022-11-15T12:35:23.154Z,34
2022-11-15T12:37:23.333Z,36
2022-11-15T12:39:23.388Z,39
2022-11-15T12:41:23.382Z,35
2022-11-15T12:43:23.506Z,33
2022-11-15T12:45:23.575Z,31
2022-11-15T12:47:23.679Z,32
2022-11-15T12:49:23.749Z,35
2022-11-15T12:51:23.801Z,36
2022-11-15T12:53:23.905Z,38
2022-11-15T12:55:23.987Z,36
2022-11-15T12:57:24.070Z,33
2022-11-15T12:59:24.172Z,33
2022-11-15T13:01:24.326Z,34
2022-11-15T13:03:24.343Z,40
2022-11-15T13:05:24.420Z,42
2022-11-15T13:07:24.556Z,36
2022-11-15T13:09:24.568Z,33
2022-11-15T13:11:24.646Z,31
2022-11-15T13:13:24.738Z,32
2022-11-15T13:15:24.805Z,33
2022-11-15T13:17:24.881Z,32
2022-11-15T13:21:25.080Z,31
2022-11-15T13:23:25.212Z,31
2022-11-15T13:25:55.294Z,33
2022-11-15T13:27:55.388Z,33
2022-11-15T13:29:55.531Z,33
2022-11-15T13:31:55.655Z,36
2022-11-15T13:33:55.766Z,37
2022-11-15T13:35:55.886Z,36
2022-11-15T13:37:55.983Z,35
2022-11-15T13:39:56.126Z,34
2022-11-15T13:41:56.204Z,33
2022-11-15T13:43:56.389Z,35
2022-11-15T13:45:56.432Z,36
2022-11-15T13:49:56.627Z,36
2022-11-15T13:51:56.765Z,40
2022-11-15T13:53:56.885Z,45
2022-11-15T13:55:56.951Z,45
2022-11-15T13:57:57.099Z,46
2022-11-15T13:59:57.313Z,47
2022-11-15T14:01:57.311Z,51
2022-11-15T14:03:57.474Z,56
2022-11-15T14:05:57.517Z,68
2022-11-15T14:07:57.640Z,67
2022-11-15T14:09:57.749Z,60
2022-11-15T14:11:57.842Z,59
2022-11-15T14:13:57.928Z,55
2022-11-15T14:15:58.038Z,53
2022-11-15T14:17:58.133Z,53
2022-11-15T14:19:58.234Z,51
2022-11-15T14:21:58.342Z,50
2022-11-15T14:23:58.475Z,45
2022-11-15T14:25:58.503Z,47
2022-11-15T14:27:58.635Z,49
2022-11-15T14:29:58.690Z,48
2022-11-15T14:33:58.904Z,48
2022-11-15T14:35:59.017Z,51
2022-11-15T14:37:59.088Z,55
2022-11-15T14:39:59.399Z,56
2022-11-15T14:41:59.308Z,50
2022-11-15T14:43:59.451Z,47
2022-11-15T14:45:59.558Z,48
2022-11-15T14:47:59.613Z,52
2022-11-15T14:49:59.739Z,53
2022-11-15T14:51:59.851Z,55
2022-11-15T14:53:59.908Z,51
2022-11-15T14:56:00.036Z,48
2022-11-15T15:00:00.229Z,49
2022-11-15T15:02:00.347Z,56
2022-11-15T15:04:00.494Z,63
2022-11-15T15:06:00.531Z,75
2022-11-15T15:08:00.898Z,77
2022-11-15T15:10:32.469Z,63
2022-11-15T15:12:05.986Z,64
2022-11-15T15:14:00.928Z,68
2022-11-15T15:16:01.046Z,70
2022-11-15T15:18:01.129Z,69
2022-11-15T15:20:01.248Z,59
2022-11-15T15:22:01.330Z,52
2022-11-15T15:24:01.456Z,56
2022-11-15T15:26:01.527Z,80
2022-11-15T15:28:01.630Z,105
2022-11-15T15:30:01.681Z,77
2022-11-15T15:32:01.767Z,77
2022-11-15T15:34:01.858Z,68
2022-11-15T15:36:01.957Z,138
2022-11-15T15:38:02.059Z,203
2022-11-15T15:40:02.276Z,143
2022-11-15T15:42:02.264Z,98
2022-11-15T15:44:02.406Z,172
2022-11-15T15:46:02.433Z,189
2022-11-15T15:48:02.544Z,102
2022-11-15T15:50:02.633Z,96
2022-11-15T15:52:02.735Z,69
2022-11-15T15:54:02.835Z,79
2022-11-15T15:56:02.922Z,71
2022-11-15T15:58:03.018Z,61
2022-11-15T16:00:03.118Z,61
2022-11-15T16:02:03.298Z,64
2022-11-15T16:04:03.346Z,77
2022-11-15T16:06:03.426Z,66
2022-11-15T16:08:03.476Z,84
2022-11-15T16:10:03.571Z,84
2022-11-15T16:12:03.663Z,80
2022-11-15T16:14:03.730Z,74
2022-11-15T16:16:03.844Z,74
2022-11-15T16:18:03.923Z,98
2022-11-15T16:20:04.007Z,102
2022-11-15T16:22:04.096Z,120
2022-11-15T16:24:04.331Z,99
2022-11-15T16:26:04.357Z,96
2022-11-15T16:28:04.368Z,108
2022-11-15T16:30:04.415Z,84
2022-11-15T16:32:04.510Z,87
2022-11-15T16:34:04.603Z,88
2022-11-15T16:36:04.666Z,85
2022-11-15T16:38:04.756Z,92
2022-11-15T16:40:04.823Z,97
2022-11-15T16:42:34.977Z,105
2022-11-15T16:44:35.097Z,112
2022-11-15T16:46:35.218Z,110
2022-11-15T16:48:35.877Z,110
2022-11-15T16:50:35.475Z,111
2022-11-15T16:52:35.581Z,113
2022-11-15T16:54:35.693Z,111
2022-11-15T16:56:35.831Z,119
2022-11-15T16:58:35.936Z,121
2022-11-15T17:00:36.065Z,109
2022-11-15T17:02:36.156Z,111
2022-11-15T17:04:36.272Z,111
2022-11-15T17:06:36.366Z,88
2022-11-15T17:08:36.505Z,84
2022-11-15T17:10:36.611Z,77
2022-11-15T17:12:36.699Z,79
2022-11-15T17:14:36.833Z,68
2022-11-15T17:16:36.926Z,63
2022-11-15T17:18:37.070Z,56
2022-11-15T17:20:37.164Z,54
2022-11-15T17:22:37.283Z,53
2022-11-15T17:24:37.366Z,51
2022-11-15T17:26:40.533Z,49
2022-11-15T17:28:37.625Z,51
2022-11-15T17:30:37.690Z,49
2022-11-15T17:32:37.772Z,64
2022-11-15T17:34:37.881Z,70
2022-11-15T17:36:38.000Z,53
2022-11-15T17:38:38.086Z,51
2022-11-15T17:40:38.205Z,60
2022-11-15T17:42:38.316Z,61
2022-11-15T17:44:38.405Z,68
2022-11-15T17:46:38.521Z,75
2022-11-15T17:48:38.635Z,69
2022-11-15T17:50:38.745Z,57
2022-11-15T17:52:38.872Z,52
2022-11-15T17:54:38.948Z,48
2022-11-15T17:56:39.076Z,86
2022-11-15T17:58:39.154Z,54
2022-11-15T18:00:39.315Z,47
2022-11-15T18:02:39.385Z,39
2022-11-15T18:04:39.466Z,40
2022-11-15T18:06:39.592Z,48
2022-11-15T18:08:39.676Z,43
2022-11-15T18:10:39.782Z,40
2022-11-15T18:12:39.893Z,37
2022-11-15T18:14:39.975Z,33
2022-11-15T18:16:40.085Z,27
2022-11-15T18:18:40.204Z,26
2022-11-15T18:20:40.296Z,26
2022-11-15T18:22:40.380Z,25
2022-11-15T18:24:40.490Z,35
2022-11-15T18:26:40.600Z,47
2022-11-15T18:28:40.706Z,50
2022-11-15T18:30:40.781Z,44
2022-11-15T18:32:40.911Z,43
2022-11-15T18:34:41.011Z,39
2022-11-15T18:36:41.141Z,38
2022-11-15T18:38:41.217Z,36
2022-11-15T18:40:41.320Z,37
2022-11-15T18:42:41.405Z,45
2022-11-15T18:44:41.505Z,60
2022-11-15T18:46:41.607Z,76
2022-11-15T18:48:41.739Z,68
2022-11-15T18:50:41.834Z,67
2022-11-15T18:52:41.928Z,69
2022-11-15T18:54:42.044Z,66
2022-11-15T18:58:42.229Z,62
2022-11-15T19:00:42.377Z,62
2022-11-15T19:02:42.452Z,66
2022-11-15T19:04:42.560Z,58
2022-11-15T19:06:42.650Z,48
2022-11-15T19:08:42.740Z,53
2022-11-15T19:10:42.843Z,50
2022-11-15T19:12:42.930Z,57
2022-11-15T19:14:43.023Z,53
2022-11-15T19:16:43.109Z,52
2022-11-15T19:18:43.228Z,53
2022-11-15T19:20:43.333Z,49
2022-11-15T19:22:43.432Z,52
2022-11-15T19:24:43.483Z,61
2022-11-15T19:26:43.586Z,72
2022-11-15T19:28:43.704Z,148
2022-11-15T19:30:43.807Z,136
2022-11-15T19:32:43.898Z,91
2022-11-15T19:34:44.008Z,68
2022-11-15T19:36:44.089Z,71
2022-11-15T19:38:44.201Z,88
2022-11-15T19:40:44.279Z,90
2022-11-15T19:42:44.398Z,96
2022-11-15T19:44:44.453Z,85
2022-11-15T19:46:44.603Z,85
2022-11-15T19:48:44.709Z,82
2022-11-15T19:50:44.742Z,80
2022-11-15T19:52:44.851Z,76
2022-11-15T19:54:44.948Z,78
2022-11-15T19:56:45.043Z,79
2022-11-15T19:58:45.112Z,78
2022-11-15T20:00:45.309Z,73
2022-11-15T20:02:45.343Z,73
2022-11-15T20:04:45.413Z,69
2022-11-15T20:06:45.489Z,69
2022-11-15T20:08:45.647Z,68
2022-11-15T20:10:45.664Z,62
2022-11-15T20:12:45.762Z,65
2022-11-15T20:14:45.845Z,70
2022-11-15T20:16:50.091Z,72
2022-11-15T20:20:46.142Z,73
2022-11-15T20:22:46.229Z,81
2022-11-15T20:24:46.309Z,78
2022-11-15T20:26:46.381Z,72
2022-11-15T20:28:46.524Z,73
2022-11-15T20:30:46.569Z,77
2022-11-15T20:32:46.717Z,85
2022-11-15T20:34:51.448Z,99
2022-11-15T20:36:46.847Z,94
2022-11-15T20:38:46.905Z,82
2022-11-15T20:40:46.996Z,76
2022-11-15T20:42:47.094Z,81
2022-11-15T20:44:47.179Z,80
2022-11-15T20:46:47.269Z,75
2022-11-15T20:48:47.405Z,76
2022-11-15T20:50:47.456Z,74
2022-11-15T20:52:47.497Z,74
2022-11-15T20:54:47.581Z,71
2022-11-15T20:56:47.665Z,76
2022-11-15T20:58:47.752Z,76
2022-11-15T21:00:47.887Z,70
2022-11-15T21:02:47.946Z,69
2022-11-15T21:05:18.073Z,72
2022-11-15T21:07:18.206Z,77
2022-11-15T21:09:18.322Z,80
2022-11-15T21:11:18.365Z,81
2022-11-15T21:13:18.471Z,80
2022-11-15T21:15:18.613Z,81
2022-11-15T21:17:18.732Z,81
2022-11-15T21:19:22.683Z,78
2022-11-15T21:21:18.946Z,78
2022-11-15T21:23:19.083Z,74
2022-11-15T21:25:19.153Z,58
2022-11-15T21:27:19.273Z,62
2022-11-15T21:29:19.478Z,60
2022-11-15T21:31:19.530Z,59
2022-11-15T21:33:19.613Z,58
2022-11-15T21:35:19.753Z,58
2022-11-15T21:37:19.874Z,57
2022-11-15T21:39:19.990Z,58
2022-11-15T21:41:20.112Z,61
2022-11-15T21:43:20.203Z,57
2022-11-15T21:45:20.338Z,58
2022-11-15T21:47:20.444Z,57
2022-11-15T21:49:20.632Z,60
2022-11-15T21:51:20.668Z,69
2022-11-15T21:55:20.910Z,69
2022-11-15T21:57:21.003Z,68
2022-11-15T21:59:21.197Z,69
2022-11-15T22:01:21.330Z,66
2022-11-15T22:03:21.336Z,64
2022-11-15T22:05:21.451Z,62
2022-11-15T22:07:21.631Z,65
2022-11-15T22:09:21.659Z,63
2022-11-15T22:11:21.791Z,61
2022-11-15T22:13:21.864Z,61
2022-11-15T22:15:21.996Z,63
2022-11-15T22:17:22.082Z,64
2022-11-15T22:19:22.206Z,66
2022-11-15T22:21:22.332Z,67
2022-11-15T22:23:22.448Z,84
2022-11-15T22:25:22.562Z,81
2022-11-15T22:27:22.635Z,89
2022-11-15T22:29:22.808Z,98
2022-11-15T22:31:22.847Z,97
2022-11-15T22:33:22.983Z,92
2022-11-15T22:35:23.071Z,101
2022-11-15T22:37:23.181Z,97
2022-11-15T22:39:23.292Z,98
2022-11-15T22:41:23.447Z,98
2022-11-15T22:43:23.496Z,97
2022-11-15T22:45:23.629Z,95
2022-11-15T22:47:23.718Z,93
2022-11-15T22:49:23.852Z,95
2022-11-15T22:51:23.966Z,94
2022-11-15T22:53:24.262Z,92
2022-11-15T22:55:24.161Z,94
2022-11-15T22:57:24.294Z,93
2022-11-15T22:59:24.379Z,90
2022-11-15T23:01:24.503Z,92
2022-11-15T23:03:24.678Z,94
2022-11-15T23:05:24.682Z,96
2022-11-15T23:07:24.817Z,96
2022-11-15T23:09:24.901Z,96
2022-11-15T23:11:24.981Z,90
2022-11-15T23:13:25.090Z,90
2022-11-15T23:15:29.527Z,87
2022-11-15T23:17:25.294Z,83
2022-11-15T23:19:25.386Z,82
2022-11-15T23:21:25.476Z,80
2022-11-15T23:23:25.586Z,75
2022-11-15T23:25:25.680Z,76
2022-11-15T23:27:25.756Z,77
2022-11-15T23:29:25.868Z,76
2022-11-15T23:31:25.941Z,74
2022-11-15T23:33:26.047Z,73
2022-11-15T23:35:26.169Z,73
2022-11-15T23:37:26.464Z,74
2022-11-15T23:39:26.360Z,73
2022-11-15T23:41:26.486Z,70
2022-11-15T23:43:26.590Z,70
2022-11-15T23:45:26.660Z,69
2022-11-15T23:47:26.784Z,65
2022-11-15T23:49:26.866Z,65
2022-11-15T23:51:26.936Z,64
2022-11-15T23:53:27.066Z,63
2022-11-15T23:55:27.153Z,62
2022-11-15T23:57:27.289Z,60
